Time;durP1;ratioP1;P1;durP2;ratioP2;P2;SDS_P1;SDS_P2;PMS_P1;PMS_P2;Temp;Humidity;BMP_temperature;BMP_pressure;BME280_temperature;BME280_humidity;BME280_pressure;Samples;Min_cycle;Max_cycle;Signal;HPM_P1;HPM_P2
2021/04/22 00:01:54;;;;;;;17.02;4.82;;;;;;;5.44;64.42;101765.25;4387355;32;20108;-77
2021/04/22 00:04:19;;;;;;;20.98;4.25;;;;;;;5.38;64.44;101764.78;4385424;32;20105;-75
2021/04/22 00:06:49;;;;;;;26.15;4.37;;;;;;;5.35;64.64;101764.72;4387621;32;20486;-75
2021/04/22 00:09:15;;;;;;;17.50;4.37;;;;;;;5.34;65.21;101758.34;4385105;32;20121;-75
2021/04/22 00:11:41;;;;;;;15.82;4.32;;;;;;;5.33;65.09;101770.69;4380125;32;20362;-76
2021/04/22 00:14:07;;;;;;;22.92;4.57;;;;;;;5.46;64.38;101762.91;4374188;32;20069;-75
2021/04/22 00:16:34;;;;;;;20.50;4.87;;;;;;;5.42;64.27;101773.19;4385252;32;20436;-76
2021/04/22 00:19:00;;;;;;;21.77;4.95;;;;;;;5.38;64.60;101769.56;4388573;32;20345;-75
2021/04/22 00:21:26;;;;;;;17.45;4.32;;;;;;;5.31;64.70;101761.88;4385145;32;20505;-75
2021/04/22 00:23:52;;;;;;;21.48;4.53;;;;;;;5.25;65.11;101768.97;4384430;32;20030;-77
2021/04/22 00:26:18;;;;;;;17.90;4.20;;;;;;;5.19;64.90;101769.69;4386644;32;20082;-77
2021/04/22 00:28:43;;;;;;;13.93;4.40;;;;;;;5.05;65.26;101775.87;4383255;32;20117;-75
2021/04/22 00:31:09;;;;;;;16.92;4.22;;;;;;;5.09;65.56;101773.94;4386246;32;20075;-75
2021/04/22 00:33:35;;;;;;;21.20;4.65;;;;;;;5.07;65.40;101762.37;4383048;32;20015;-75
2021/04/22 00:36:01;;;;;;;21.10;4.53;;;;;;;5.00;65.64;101784.56;4383635;32;20039;-76
2021/04/22 00:38:27;;;;;;;18.15;3.92;;;;;;;5.02;65.30;101781.41;4382284;32;20478;-75
2021/04/22 00:40:54;;;;;;;29.87;4.97;;;;;;;4.98;65.55;101778.56;4389378;32;20039;-76
2021/04/22 00:43:21;;;;;;;30.37;4.62;;;;;;;4.91;65.63;101780.44;4384696;32;20149;-77
2021/04/22 00:45:47;;;;;;;15.48;3.75;;;;;;;4.85;65.71;101782.72;4384028;32;20114;-76
2021/04/22 00:48:17;;;;;;;20.20;4.32;;;;;;;4.71;66.14;101793.66;4389001;32;20083;-76
2021/04/22 00:50:43;;;;;;;27.02;5.18;;;;;;;4.63;66.47;101791.94;4376138;32;20035;-74
2021/04/22 00:53:10;;;;;;;24.40;3.85;;;;;;;4.55;66.33;101790.22;4383312;32;20038;-75
2021/04/22 00:55:36;;;;;;;21.30;4.45;;;;;;;4.57;66.33;101785.06;4381112;32;20210;-74
2021/04/22 00:58:03;;;;;;;18.33;4.30;;;;;;;4.55;66.52;101793.00;4384389;32;20064;-76
2021/04/22 01:00:32;;;;;;;14.23;3.95;;;;;;;4.49;66.42;101788.91;4384341;32;20096;-76
2021/04/22 01:02:58;;;;;;;18.33;4.10;;;;;;;4.35;67.31;101782.28;4384179;32;20049;-75
2021/04/22 01:05:32;;;;;;;21.25;4.78;;;;;;;4.29;67.37;101787.34;4386346;32;20152;-75
2021/04/22 01:07:58;;;;;;;23.02;5.72;;;;;;;4.36;67.22;101783.91;4386951;32;20123;-74
2021/04/22 01:10:24;;;;;;;21.67;4.82;;;;;;;4.31;67.28;101789.75;4384239;32;20031;-75
2021/04/22 01:12:50;;;;;;;20.98;4.85;;;;;;;4.16;67.80;101785.94;4383419;32;20159;-76
2021/04/22 01:15:20;;;;;;;18.37;3.78;;;;;;;4.30;67.19;101788.16;4382852;32;20045;-76
2021/04/22 01:17:47;;;;;;;16.40;3.83;;;;;;;4.25;67.69;101789.28;4383901;32;20039;-77
2021/04/22 01:22:53;;;;;;;13.15;3.55;;;;;;;4.68;66.67;101796.37;3983396;32;15075838;-77
2021/04/22 01:25:24;;;;;;;14.15;3.75;;;;;;;4.68;66.67;101796.37;4442330;32;20096;-78
2021/04/22 01:27:50;;;;;;;13.82;3.33;;;;;;;4.27;67.26;101794.47;4441487;32;20073;-76
2021/04/22 01:30:20;;;;;;;13.77;3.78;;;;;;;4.20;67.39;101800.72;4431136;32;20034;-77
2021/04/22 01:32:46;;;;;;;23.67;4.40;;;;;;;4.22;67.16;101801.16;4442031;32;20037;-76
2021/04/22 01:35:15;;;;;;;22.02;3.97;;;;;;;4.17;67.40;101804.25;4441972;32;20105;-77
2021/04/22 01:37:42;;;;;;;13.45;3.62;;;;;;;4.14;67.58;101803.00;4441242;32;20038;-77
2021/04/22 01:40:11;;;;;;;21.45;4.45;;;;;;;4.11;67.55;101803.75;4439901;32;20060;-77
2021/04/22 01:42:36;;;;;;;14.35;3.83;;;;;;;4.08;67.69;101800.88;4441033;32;20104;-76
2021/04/22 01:45:04;;;;;;;17.95;5.15;;;;;;;3.98;67.98;101807.88;4441771;32;21214;-77
2021/04/22 01:47:29;;;;;;;23.60;4.25;;;;;;;4.02;67.67;101803.16;4439519;32;20034;-77
2021/04/22 01:49:55;;;;;;;20.37;4.03;;;;;;;3.95;67.61;101808.62;4441028;32;20025;-77
2021/04/22 01:52:20;;;;;;;24.95;4.50;;;;;;;3.96;67.35;101801.84;4439826;32;20431;-78
2021/04/22 01:54:46;;;;;;;14.85;3.58;;;;;;;3.93;67.30;101805.38;4440319;32;20614;-77
2021/04/22 01:57:12;;;;;;;19.33;3.62;;;;;;;3.87;67.59;101803.28;4442313;32;20030;-77
2021/04/22 01:59:37;;;;;;;12.35;4.53;;;;;;;3.77;67.87;101801.06;4438366;32;20034;-76
2021/04/22 02:02:03;;;;;;;11.63;3.70;;;;;;;3.74;67.92;101799.81;4425151;32;20065;-77
2021/04/22 02:04:29;;;;;;;16.85;3.28;;;;;;;3.71;67.97;101800.56;4425214;32;20033;-76
2021/04/22 02:06:56;;;;;;;16.87;3.20;;;;;;;3.71;67.59;101794.19;4420900;32;20085;-77
2021/04/22 02:09:21;;;;;;;19.50;4.07;;;;;;;3.63;67.65;101800.78;4418772;32;20381;-76
2021/04/22 02:11:47;;;;;;;15.45;3.35;;;;;;;3.54;68.10;101795.44;4421008;32;20074;-76
2021/04/22 02:14:13;;;;;;;14.52;3.22;;;;;;;3.39;68.67;101792.72;4424770;32;20079;-77
2021/04/22 02:16:39;;;;;;;16.25;3.47;;;;;;;3.29;68.96;101804.41;4418920;32;20096;-76
2021/04/22 02:19:05;;;;;;;20.08;3.95;;;;;;;3.27;69.18;101802.00;4418617;32;20041;-77
2021/04/22 02:21:31;;;;;;;14.77;3.35;;;;;;;3.15;69.64;101802.13;4421678;32;20468;-77
2021/04/22 02:23:57;;;;;;;18.40;3.25;;;;;;;3.14;69.87;101805.25;4425203;32;20388;-77
2021/04/22 02:26:24;;;;;;;12.05;3.97;;;;;;;3.16;69.70;101800.94;4414017;32;20506;-77
2021/04/22 02:28:50;;;;;;;11.40;3.30;;;;;;;3.12;69.89;101800.06;4417661;32;20048;-77
2021/04/22 02:31:16;;;;;;;20.08;3.97;;;;;;;3.13;69.79;101796.09;4420282;32;20077;-77
2021/04/22 02:33:42;;;;;;;20.75;4.35;;;;;;;3.11;70.06;101797.66;4405893;32;20038;-76
2021/04/22 02:36:08;;;;;;;19.25;4.78;;;;;;;3.11;70.09;101797.66;4409538;32;20078;-78
2021/04/22 02:38:34;;;;;;;16.85;3.75;;;;;;;3.10;70.35;101799.59;4409402;32;20086;-76
2021/04/22 02:40:59;;;;;;;24.48;4.15;;;;;;;3.03;70.45;101807.78;4411107;32;20034;-77
2021/04/22 02:43:25;;;;;;;14.50;3.30;;;;;;;3.02;70.31;101805.38;4410567;32;20094;-76
2021/04/22 02:45:55;;;;;;;15.80;3.65;;;;;;;3.03;70.41;101801.41;4410672;32;20104;-76
2021/04/22 02:48:23;;;;;;;17.35;3.10;;;;;;;3.00;70.43;101805.75;4409187;32;20109;-76
2021/04/22 02:50:51;;;;;;;19.12;4.05;;;;;;;2.99;70.24;101794.97;4409165;32;20341;-76
2021/04/22 02:53:18;;;;;;;18.77;3.53;;;;;;;3.09;69.76;101803.56;4408829;32;20042;-77
2021/04/22 02:55:45;;;;;;;20.37;3.15;;;;;;;2.98;69.93;101810.06;4409668;32;20054;-75
2021/04/22 02:58:12;;;;;;;16.20;3.83;;;;;;;2.98;70.08;101815.63;4413042;32;20109;-74
2021/04/22 03:00:39;;;;;;;14.73;3.65;;;;;;;3.11;69.42;101811.53;4402452;32;20034;-75
2021/04/22 03:03:06;;;;;;;15.23;3.37;;;;;;;3.14;69.33;101819.16;4410535;32;20126;-75
2021/04/22 03:05:31;;;;;;;16.00;3.47;;;;;;;3.17;69.15;101813.69;4410342;32;20108;-77
2021/04/22 03:07:57;;;;;;;17.65;3.58;;;;;;;3.11;69.31;101811.53;4409749;32;20038;-75
2021/04/22 03:10:26;;;;;;;14.82;3.05;;;;;;;3.10;69.36;101807.94;4411234;32;20445;-75
2021/04/22 03:12:53;;;;;;;19.45;3.30;;;;;;;3.08;69.49;101810.31;4408881;32;20084;-77
2021/04/22 03:15:19;;;;;;;15.15;4.05;;;;;;;3.05;69.50;101815.78;4408128;32;20030;-75
2021/04/22 03:17:46;;;;;;;16.60;3.47;;;;;;;3.02;69.77;101819.28;4410509;32;20436;-76
2021/04/22 03:20:13;;;;;;;23.23;3.25;;;;;;;3.03;69.59;101815.31;4409916;32;20068;-76
2021/04/22 03:22:39;;;;;;;16.85;3.60;;;;;;;3.02;69.51;101816.50;4409672;32;20072;-77
2021/04/22 03:25:07;;;;;;;11.00;3.83;;;;;;;3.02;69.45;101816.50;4413351;32;20422;-75
2021/04/22 03:27:34;;;;;;;19.10;4.60;;;;;;;2.82;70.34;101812.06;4408791;32;20069;-75
2021/04/22 03:29:59;;;;;;;18.87;3.42;;;;;;;2.95;70.39;101819.13;4408818;32;20085;-74
2021/04/22 03:32:26;;;;;;;22.37;3.72;;;;;;;3.00;69.86;101816.03;4410845;32;20030;-74
2021/04/22 03:34:53;;;;;;;15.18;3.25;;;;;;;2.96;69.63;101815.97;4409616;32;20125;-75
2021/04/22 03:37:19;;;;;;;16.42;3.37;;;;;;;2.89;70.04;101826.13;4410746;32;20018;-74
2021/04/22 03:39:45;;;;;;;18.00;3.60;;;;;;;2.83;70.21;101810.88;4410929;32;20029;-74
2021/04/22 03:42:11;;;;;;;15.45;3.50;;;;;;;2.89;69.97;101817.78;4410068;32;20198;-75
2021/04/22 03:44:37;;;;;;;26.05;4.37;;;;;;;2.89;69.99;101815.00;4412922;32;20034;-74
2021/04/22 03:47:02;;;;;;;17.73;3.72;;;;;;;2.81;70.37;101813.19;4408501;32;20026;-76
2021/04/22 03:49:28;;;;;;;18.75;3.78;;;;;;;2.84;70.41;101813.31;4405755;32;20077;-75
2021/04/22 03:51:54;;;;;;;17.23;4.68;;;;;;;2.82;70.39;101817.63;4408942;32;20174;-77
2021/04/22 03:54:20;;;;;;;18.45;4.37;;;;;;;2.75;70.49;101818.25;4408958;32;20086;-76
2021/04/22 03:56:46;;;;;;;21.08;4.47;;;;;;;2.77;70.55;101815.09;4411574;32;20068;-74
2021/04/22 03:59:12;;;;;;;20.92;3.35;;;;;;;2.78;70.49;101820.31;4406446;32;20035;-76
2021/04/22 04:01:38;;;;;;;21.10;2.83;;;;;;;2.58;71.10;101817.81;4409963;32;20104;-75
2021/04/22 04:04:04;;;;;;;16.52;3.92;;;;;;;2.64;70.81;101819.94;4407467;32;20127;-77
2021/04/22 04:06:31;;;;;;;20.33;3.67;;;;;;;2.66;70.67;101816.78;4401806;32;20470;-77
2021/04/22 04:08:58;;;;;;;14.77;3.42;;;;;;;2.58;71.07;101817.81;4405949;32;20061;-79
2021/04/22 04:11:23;;;;;;;22.73;3.28;;;;;;;2.64;70.77;101814.38;4408184;32;20099;-76
2021/04/22 04:13:49;;;;;;;19.62;3.55;;;;;;;2.57;71.01;101821.75;4408294;32;20031;-76
2021/04/22 04:16:14;;;;;;;14.05;4.00;;;;;;;2.66;70.74;101817.59;4407625;32;20038;-76
2021/04/22 04:18:41;;;;;;;15.32;4.80;;;;;;;2.61;70.84;101820.66;4407820;32;20111;-76
2021/04/22 04:21:06;;;;;;;16.02;3.35;;;;;;;2.63;70.92;101815.56;4408003;32;20482;-75
2021/04/22 04:23:32;;;;;;;32.03;4.32;;;;;;;2.67;70.82;101818.44;4408985;32;20085;-76
2021/04/22 04:25:58;;;;;;;19.37;3.70;;;;;;;2.61;71.05;101808.75;4406313;32;20078;-76
2021/04/22 04:28:23;;;;;;;18.77;3.95;;;;;;;2.58;71.27;101812.25;4410034;32;20095;-74
2021/04/22 04:30:49;;;;;;;19.33;3.60;;;;;;;2.60;71.13;101809.87;4408065;32;20034;-76
2021/04/22 04:33:15;;;;;;;14.10;3.70;;;;;;;2.59;71.16;101802.72;4412255;32;20026;-75
2021/04/22 04:35:40;;;;;;;17.98;3.87;;;;;;;2.57;71.01;101805.88;4414151;32;20418;-75
2021/04/22 04:38:06;;;;;;;16.12;2.95;;;;;;;2.51;71.37;101815.63;4407600;32;20105;-75
2021/04/22 04:40:33;;;;;;;15.20;4.15;;;;;;;2.68;70.78;101822.81;4407653;32;20038;-76
2021/04/22 04:42:59;;;;;;;15.80;4.07;;;;;;;2.75;70.52;101825.75;4410875;32;20401;-76
2021/04/22 04:45:26;;;;;;;17.67;4.25;;;;;;;2.75;70.79;101818.25;4409469;32;20050;-75
2021/04/22 04:47:53;;;;;;;17.05;4.25;;;;;;;2.69;70.83;101818.84;4408106;32;20116;-77
2021/04/22 04:50:19;;;;;;;21.65;3.78;;;;;;;2.65;71.15;101826.31;4407539;32;20056;-76
2021/04/22 04:52:46;;;;;;;20.37;4.40;;;;;;;2.66;71.21;101825.12;4410319;32;20038;-77
2021/04/22 04:55:12;;;;;;;16.80;3.90;;;;;;;2.64;71.18;101824.72;4404979;32;20125;-75
2021/04/22 04:57:38;;;;;;;29.25;5.03;;;;;;;2.69;70.94;101832.75;4410478;32;20118;-76
2021/04/22 05:00:06;;;;;;;21.98;4.82;;;;;;;2.68;71.02;101834.75;4406755;32;20070;-76
2021/04/22 05:02:33;;;;;;;25.17;4.80;;;;;;;2.71;71.16;101836.00;4411262;32;20436;-75
2021/04/22 05:04:59;;;;;;;25.75;5.87;;;;;;;2.56;71.57;101828.47;4407618;32;20412;-75
2021/04/22 05:07:25;;;;;;;24.75;6.03;;;;;;;2.67;71.38;101840.66;4411165;32;20117;-76
2021/04/22 05:09:51;;;;;;;31.95;6.72;;;;;;;2.75;71.30;101842.44;4406117;32;20038;-75
2021/04/22 05:12:17;;;;;;;25.85;4.60;;;;;;;2.78;70.89;101844.50;4408972;32;20046;-76
2021/04/22 05:14:43;;;;;;;19.25;4.20;;;;;;;2.73;70.76;101845.56;4405884;32;21105;-76
2021/04/22 05:17:09;;;;;;;26.80;4.90;;;;;;;2.73;70.73;101845.56;4405586;32;20030;-76
2021/04/22 05:19:34;;;;;;;26.17;4.85;;;;;;;2.76;70.55;101841.28;4408580;32;20042;-73
2021/04/22 05:22:00;;;;;;;28.20;4.47;;;;;;;2.80;70.17;101844.97;4406411;32;20133;-75
2021/04/22 05:24:25;;;;;;;36.08;5.70;;;;;;;2.85;70.33;101845.47;4408894;32;20157;-76
2021/04/22 05:26:52;;;;;;;32.42;4.70;;;;;;;2.95;70.05;101846.91;4409333;32;20100;-77
2021/04/22 05:29:19;;;;;;;27.40;4.70;;;;;;;2.95;70.01;101849.69;4407223;32;20046;-77
2021/04/22 05:31:44;;;;;;;21.30;5.25;;;;;;;3.04;70.06;101853.87;4410158;32;20127;-75
2021/04/22 05:34:10;;;;;;;21.33;4.62;;;;;;;3.08;69.86;101848.44;4410420;32;20051;-76
2021/04/22 05:36:36;;;;;;;20.25;4.15;;;;;;;3.12;69.71;101850.13;4407790;32;20085;-76
2021/04/22 05:39:02;;;;;;;22.52;4.72;;;;;;;3.21;69.52;101847.97;4408124;32;20030;-77
2021/04/22 05:41:28;;;;;;;36.75;5.45;;;;;;;3.22;69.14;101846.78;4411679;32;20403;-76
2021/04/22 05:43:53;;;;;;;28.33;5.10;;;;;;;3.23;69.15;101839.25;4405841;32;20111;-75
2021/04/22 05:46:19;;;;;;;20.52;5.05;;;;;;;3.30;69.13;101842.19;4406655;32;20137;-76
2021/04/22 05:48:45;;;;;;;16.73;5.03;;;;;;;3.24;69.41;101851.97;4405207;32;20706;-76
2021/04/22 05:51:10;;;;;;;28.02;6.20;;;;;;;3.23;69.64;101856.75;4410326;32;20480;-76
2021/04/22 05:53:36;;;;;;;26.67;5.62;;;;;;;3.38;69.48;101864.22;4411291;32;20103;-77
2021/04/22 05:56:03;;;;;;;21.48;4.78;;;;;;;3.62;68.72;101872.34;4409457;32;20066;-77
2021/04/22 05:58:28;;;;;;;27.48;5.72;;;;;;;3.80;68.27;101867.16;4408273;32;20038;-77
2021/04/22 06:00:54;;;;;;;26.25;4.40;;;;;;;3.83;67.97;101867.25;4410304;32;20130;-77
2021/04/22 06:03:21;;;;;;;17.95;4.18;;;;;;;4.00;67.38;101872.38;4407250;32;20390;-76
2021/04/22 06:05:46;;;;;;;21.08;4.90;;;;;;;4.08;66.89;101874.13;4405268;32;20390;-76
2021/04/22 06:08:12;;;;;;;26.95;5.78;;;;;;;4.21;66.53;101869.22;4411318;32;20378;-76
2021/04/22 06:10:38;;;;;;;22.58;5.65;;;;;;;4.31;66.27;101873.34;4412204;32;20081;-78
2021/04/22 06:13:06;;;;;;;23.55;5.45;;;;;;;4.45;65.86;101876.44;4411713;32;20115;-77
2021/04/22 06:15:32;;;;;;;28.70;6.80;;;;;;;4.35;66.22;101875.03;4412549;32;20038;-76
2021/04/22 06:17:59;;;;;;;29.73;5.87;;;;;;;4.37;65.98;101877.47;4406749;32;20358;-77
2021/04/22 06:20:25;;;;;;;25.20;6.50;;;;;;;4.47;66.50;101874.88;4409800;32;20066;-76
2021/04/22 06:22:51;;;;;;;26.95;7.75;;;;;;;4.61;66.00;101879.91;4394837;32;20496;-78
2021/04/22 06:25:19;;;;;;;20.55;5.87;;;;;;;4.68;65.82;101889.22;4393741;32;20055;-77
2021/04/22 06:27:45;;;;;;;18.15;5.47;;;;;;;4.83;65.39;101891.09;4389273;32;20030;-76
2021/04/22 06:30:12;;;;;;;22.83;7.00;;;;;;;4.93;65.23;101889.62;4390314;32;20108;-76
2021/04/22 06:32:39;;;;;;;26.42;7.25;;;;;;;5.04;64.90;101899.81;4391090;32;20059;-76
2021/04/22 06:35:06;;;;;;;27.75;5.75;;;;;;;5.09;65.24;101899.50;4389712;32;20042;-77
2021/04/22 06:37:32;;;;;;;22.70;6.82;;;;;;;5.19;64.26;101896.06;4392696;32;20064;-77
2021/04/22 06:39:58;;;;;;;22.73;5.30;;;;;;;5.31;64.09;101893.06;4389400;32;20038;-76
2021/04/22 06:42:25;;;;;;;25.77;6.60;;;;;;;5.41;63.88;101903.63;4390958;32;20069;-78
2021/04/22 06:44:51;;;;;;;32.00;6.03;;;;;;;5.47;64.13;101904.91;4384018;32;20082;-77
2021/04/22 06:47:17;;;;;;;23.38;5.57;;;;;;;5.59;64.19;101901.88;4388243;32;20550;-75
2021/04/22 06:53:22;;;;;;;31.67;7.10;;;;;;;6.21;62.48;101908.75;4384763;32;20107;-75
2021/04/22 06:55:48;;;;;;;33.45;6.40;;;;;;;6.28;62.25;101908.00;4387795;32;21238;-75
2021/04/22 06:58:15;;;;;;;23.55;5.50;;;;;;;6.44;62.13;101903.03;4387132;32;20147;-75
2021/04/22 07:00:43;;;;;;;26.45;6.85;;;;;;;6.51;61.37;101900.28;4385624;32;20046;-75
2021/04/22 07:03:08;;;;;;;23.80;6.35;;;;;;;6.60;61.49;101895.97;4384887;32;20350;-75
2021/04/22 07:05:35;;;;;;;23.15;6.32;;;;;;;6.71;60.81;101902.50;4385445;32;20079;-77
2021/04/22 07:08:02;;;;;;;24.15;8.43;;;;;;;6.87;60.44;101911.44;4385841;32;20439;-76
2021/04/22 07:10:27;;;;;;;24.02;6.47;;;;;;;6.68;60.88;101908.88;4382942;32;20088;-76
2021/04/22 07:12:53;;;;;;;25.85;6.95;;;;;;;6.97;60.56;101918.34;4386684;32;20444;-74
2021/04/22 07:15:19;;;;;;;19.85;6.25;;;;;;;7.12;59.97;101920.88;4384328;32;20489;-74
2021/04/22 07:17:45;;;;;;;20.15;6.25;;;;;;;7.27;59.92;101922.59;4381176;32;20116;-74
2021/04/22 07:20:16;;;;;;;21.77;6.45;;;;;;;7.44;59.56;101921.16;4379132;32;20078;-76
2021/04/22 07:22:46;;;;;;;26.02;6.35;;;;;;;7.62;58.78;101920.09;4397815;32;20147;-82
2021/04/22 07:25:14;;;;;;;22.70;5.47;;;;;;;7.72;58.79;101921.34;4398601;32;20068;-75
2021/04/22 07:27:40;;;;;;;27.85;6.22;;;;;;;7.82;58.42;101912.19;4398363;32;20053;-74
2021/04/22 07:30:07;;;;;;;20.85;6.15;;;;;;;7.95;58.52;101910.69;4401638;32;20065;-74
2021/04/22 07:32:34;;;;;;;38.35;8.43;;;;;;;8.23;57.67;101910.03;4398815;32;20083;-74
2021/04/22 07:35:00;;;;;;;29.35;6.70;;;;;;;8.34;57.35;101906.06;4404423;32;20108;-74
2021/04/22 07:37:26;;;;;;;33.42;6.55;;;;;;;8.40;56.70;101909.31;4399499;32;20275;-73
2021/04/22 07:39:53;;;;;;;22.33;5.00;;;;;;;8.56;57.00;101910.53;4399823;32;20046;-74
2021/04/22 07:42:19;;;;;;;19.87;4.30;;;;;;;8.70;56.42;101919.00;4400843;32;20069;-73
2021/04/22 07:44:47;;;;;;;26.50;5.00;;;;;;;8.95;55.96;101911.44;4400317;32;20096;-75
2021/04/22 07:47:15;;;;;;;26.62;4.37;;;;;;;9.11;55.37;101922.28;4401077;32;20042;-75
2021/04/22 07:49:42;;;;;;;32.92;4.62;;;;;;;9.26;54.96;101919.06;4404226;32;20104;-74
2021/04/22 07:52:08;;;;;;;22.87;4.93;;;;;;;9.39;54.44;101911.81;4401752;32;20108;-76
2021/04/22 07:54:34;;;;;;;25.25;4.47;;;;;;;9.56;54.27;101913.03;4400973;32;20233;-76
2021/04/22 07:56:59;;;;;;;30.48;4.95;;;;;;;9.51;53.98;101911.41;4401465;32;20135;-75
2021/04/22 07:59:25;;;;;;;28.05;5.62;;;;;;;9.61;54.03;101909.81;4399705;32;20142;-75
2021/04/22 08:01:51;;;;;;;25.33;4.55;;;;;;;9.85;53.45;101918.19;4399890;32;20077;-76
2021/04/22 08:04:16;;;;;;;33.22;4.95;;;;;;;9.87;52.77;101918.59;4403508;32;21796;-75
2021/04/22 08:06:42;;;;;;;20.67;4.57;;;;;;;9.89;52.16;101926.62;4402944;32;20053;-74
2021/04/22 08:09:08;;;;;;;21.83;4.12;;;;;;;10.09;52.11;101916.53;4400590;32;20486;-76
2021/04/22 08:11:34;;;;;;;25.40;5.62;;;;;;;10.22;51.48;101920.53;4405735;32;20081;-74
2021/04/22 08:14:02;;;;;;;23.90;4.72;;;;;;;10.46;50.88;101927.25;4401376;32;20483;-75
2021/04/22 08:16:28;;;;;;;24.55;4.35;;;;;;;10.52;50.75;101928.44;4400200;32;20070;-75
2021/04/22 08:18:55;;;;;;;35.72;4.25;;;;;;;10.58;50.68;101927.59;4400291;32;20081;-75
2021/04/22 08:21:22;;;;;;;23.70;4.00;;;;;;;10.72;49.48;101932.34;4401473;32;20065;-76
2021/04/22 08:23:48;;;;;;;24.58;4.18;;;;;;;10.87;49.04;101934.69;4401480;32;20098;-75
2021/04/22 08:26:18;;;;;;;26.25;3.53;;;;;;;10.87;48.27;101933.88;4402951;32;20489;-75
2021/04/22 08:28:45;;;;;;;27.48;4.35;;;;;;;10.96;48.63;101928.56;4400714;32;20077;-73
2021/04/22 08:31:18;;;;;;;21.85;4.70;;;;;;;10.92;48.22;101927.81;4400142;32;20089;-74
2021/04/22 08:33:47;;;;;;;25.55;3.97;;;;;;;11.21;47.80;101930.00;4399078;32;20117;-73
2021/04/22 08:36:13;;;;;;;15.95;3.33;;;;;;;11.22;46.91;101925.97;4401085;32;20138;-73
2021/04/22 08:38:40;;;;;;;19.35;4.37;;;;;;;11.44;46.59;101926.56;4403461;32;20112;-74
2021/04/22 08:41:06;;;;;;;19.50;3.72;;;;;;;11.89;45.18;101928.19;4398514;32;20066;-76
2021/04/22 08:43:33;;;;;;;16.37;4.07;;;;;;;12.35;43.27;101931.28;4400489;32;20515;-75
2021/04/22 08:45:59;;;;;;;17.30;3.65;;;;;;;12.91;42.05;101929.72;4400708;32;20069;-74
2021/04/22 08:48:27;;;;;;;28.15;3.78;;;;;;;13.41;40.63;101936.25;4398236;32;20166;-74
2021/04/22 08:50:54;;;;;;;17.20;3.37;;;;;;;13.65;38.91;101929.34;4399063;32;20431;-73
2021/04/22 08:53:24;;;;;;;19.83;3.42;;;;;;;14.00;37.66;101937.19;4400496;32;20086;-73
2021/04/22 08:55:51;;;;;;;16.58;2.95;;;;;;;14.38;36.66;101934.84;4401728;32;20092;-74
2021/04/22 08:58:17;;;;;;;15.38;2.65;;;;;;;14.31;36.48;101937.81;4403226;32;20457;-73
2021/04/22 09:00:49;;;;;;;16.75;3.05;;;;;;;14.69;35.73;101939.03;4402001;32;20138;-73
2021/04/22 09:03:15;;;;;;;18.33;3.35;;;;;;;14.99;34.91;101936.72;4401468;32;20429;-72
2021/04/22 09:05:41;;;;;;;19.62;3.65;;;;;;;15.44;34.26;101931.22;4400724;32;20131;-74
2021/04/22 09:08:08;;;;;;;22.87;3.92;;;;;;;15.74;33.29;101937.31;4401182;32;20609;-75
2021/04/22 09:10:34;;;;;;;14.63;3.53;;;;;;;15.98;33.48;101934.25;4404967;32;20152;-74
2021/04/22 09:13:17;;;;;;;20.02;3.40;;;;;;;16.27;33.04;101933.00;4404779;32;20137;-73
2021/04/22 09:15:45;;;;;;;12.07;2.30;;;;;;;16.36;32.11;101940.88;4401468;32;20498;-75
2021/04/22 09:18:15;;;;;;;12.70;2.42;;;;;;;16.37;29.61;101934.75;4402146;32;20078;-73
2021/04/22 09:20:46;;;;;;;12.10;2.83;;;;;;;16.74;29.39;101944.63;4403757;32;20100;-74
2021/04/22 09:23:17;;;;;;;9.50;2.03;;;;;;;16.96;28.26;101932.16;4402149;32;20065;-74
2021/04/22 09:25:43;;;;;;;12.60;2.08;;;;;;;17.25;26.17;101918.59;4403112;32;20080;-74
2021/04/22 09:28:09;;;;;;;10.45;2.03;;;;;;;16.97;24.63;101932.97;4404147;32;20092;-74
2021/04/22 09:30:42;;;;;;;8.77;2.10;;;;;;;16.85;24.75;101926.03;4401929;32;20125;-73
2021/04/22 09:33:22;;;;;;;11.65;1.23;;;;;;;17.17;24.06;101922.97;4403575;32;20105;-73
2021/04/22 09:35:48;;;;;;;18.67;2.20;;;;;;;17.00;23.15;101930.00;4401761;32;20081;-74
2021/04/22 09:38:14;;;;;;;10.18;2.08;;;;;;;16.80;23.37;101931.47;4400743;32;20498;-74
2021/04/22 09:40:42;;;;;;;12.68;2.35;;;;;;;16.92;24.48;101925.78;4402501;32;20069;-72
2021/04/22 09:43:13;;;;;;;5.93;1.50;;;;;;;16.76;22.23;101919.41;4401297;32;20093;-73
2021/04/22 09:45:44;;;;;;;12.65;1.87;;;;;;;16.82;20.94;101924.09;4403423;32;20053;-73
2021/04/22 09:48:21;;;;;;;8.05;1.80;;;;;;;16.74;20.11;101928.37;4404928;32;20086;-74
2021/04/22 09:50:47;;;;;;;13.38;1.83;;;;;;;16.78;22.21;101926.22;4404235;32;20075;-73
2021/04/22 09:53:16;;;;;;;8.30;1.45;;;;;;;16.73;21.17;101926.81;4400623;32;20171;-73
2021/04/22 09:55:43;;;;;;;15.77;2.35;;;;;;;17.10;21.19;101922.38;4397940;32;20071;-74
2021/04/22 09:58:09;;;;;;;9.52;1.85;;;;;;;17.39;23.47;101920.19;4403917;32;20085;-76
2021/04/22 10:00:36;;;;;;;13.60;2.17;;;;;;;17.73;23.93;101917.41;4400162;32;20093;-75
2021/04/22 10:03:12;;;;;;;12.52;2.33;;;;;;;17.87;22.24;101922.63;4398451;32;20115;-73
2021/04/22 10:05:39;;;;;;;8.60;1.87;;;;;;;18.24;19.84;101929.44;4403178;32;20081;-74
2021/04/22 10:11:26;;;;;;;11.37;2.37;;;;;;;19.37;20.89;101929.50;3989144;31;15028415;-74
2021/04/22 10:13:52;;;;;;;14.80;2.87;;;;;;;19.37;20.89;101929.50;4441297;32;20191;-73
2021/04/22 10:16:18;;;;;;;12.20;2.62;;;;;;;18.92;21.98;101930.06;4441475;32;20029;-74
2021/04/22 10:18:45;;;;;;;11.07;2.97;;;;;;;19.12;21.78;101926.84;4434608;32;20081;-73
2021/04/22 10:21:13;;;;;;;11.40;2.12;;;;;;;19.51;20.58;101920.31;4439480;32;20048;-74
2021/04/22 10:23:39;;;;;;;13.32;2.87;;;;;;;19.53;19.20;101920.66;4438067;32;20048;-75
2021/04/22 10:26:05;;;;;;;13.95;2.92;;;;;;;19.52;21.80;101924.78;4436584;32;20135;-74
2021/04/22 10:28:31;;;;;;;12.40;2.72;;;;;;;19.58;21.36;101926.53;4436601;32;21268;-74
2021/04/22 10:30:57;;;;;;;8.85;2.20;;;;;;;19.56;20.39;101929.09;4436370;32;20057;-74
2021/04/22 10:33:24;;;;;;;13.00;2.55;;;;;;;19.49;20.87;101920.78;4422400;32;20076;-73
2021/04/22 10:35:50;;;;;;;11.68;2.53;;;;;;;19.75;21.31;101918.47;4423766;32;20108;-73
2021/04/22 10:38:19;;;;;;;21.58;2.58;;;;;;;19.74;19.92;101925.47;4439084;32;20096;-71
2021/04/22 10:40:48;;;;;;;13.52;2.60;;;;;;;19.93;20.07;101909.94;4425745;32;20072;-74
2021/04/22 10:43:18;;;;;;;11.45;2.62;;;;;;;20.52;19.25;101914.22;4436228;32;20546;-72
2021/04/22 10:45:45;;;;;;;10.23;2.22;;;;;;;20.93;20.09;101910.63;4436510;32;20128;-74
2021/04/22 10:48:11;;;;;;;10.57;2.62;;;;;;;21.19;16.96;101920.38;4436518;32;20105;-75
2021/04/22 10:50:44;;;;;;;16.87;2.97;;;;;;;21.42;18.38;101911.84;4422331;32;20189;-74
2021/04/22 10:53:14;;;;;;;10.98;2.78;;;;;;;21.21;19.01;101906.41;4434340;32;20103;-73
2021/04/22 10:55:44;;;;;;;9.98;2.22;;;;;;;20.83;19.05;101901.25;4435930;32;20088;-72
2021/04/22 10:58:17;;;;;;;9.40;2.78;;;;;;;21.07;18.51;101915.66;4438495;32;20600;-71
2021/04/22 11:03:43;;;;;;;6.47;2.17;;;;;;;22.73;16.93;101915.09;3980542;32;15021424;-73
2021/04/22 11:08:55;;;;;;;8.77;2.22;;;;;;;23.45;14.32;101916.31;3971834;32;15021827;-74
2021/04/22 11:11:27;;;;;;;11.50;1.87;;;;;;;23.45;14.32;101916.31;4418960;32;20077;-73
2021/04/22 11:14:12;;;;;;;12.50;2.08;;;;;;;23.18;13.33;101910.91;4419729;32;20097;-72
2021/04/22 11:16:41;;;;;;;9.93;2.05;;;;;;;23.36;13.45;101916.44;4417458;32;20820;-73
2021/04/22 11:19:43;;;;;;;8.48;2.25;;;;;;;23.31;12.78;101911.41;4418950;32;20097;-75
2021/04/22 11:24:58;;;;;;;9.25;2.37;;;;;;;24.30;11.83;101914.84;3979958;32;15024348;-75
2021/04/22 11:27:26;;;;;;;8.00;1.73;;;;;;;24.30;11.83;101914.84;4434750;32;20053;-76
2021/04/22 11:43:01;;;;;;;5.03;1.83;;;;;;;25.49;11.20;101906.28;3934955;32;15021563;-75
2021/04/22 11:45:29;;;;;;;7.80;1.58;;;;;;;25.49;11.20;101906.28;4379239;32;20553;-73
2021/04/22 11:47:58;;;;;;;7.87;2.10;;;;;;;24.85;11.75;101909.69;4379644;32;20046;-73
2021/04/22 11:50:28;;;;;;;14.80;2.40;;;;;;;24.78;11.62;101910.94;4385724;32;20472;-73
2021/04/22 11:55:33;;;;;;;8.70;2.17;;;;;;;25.38;12.52;101907.75;3973320;31;15715603;-72